Photometre #642[NE_1.2] Dushanbe AOT

File : 20190923_642.hum

23/09/2019,01:58:51,TEMP=17.8,BA=5.16,STAT.A=4.0,ExtBa=13.57
23/09/2019,02:02:08,TEMP=18.1,BA=5.04,STAT.A=4.0,ExtBa=13.57
23/09/2019,02:05:58,TEMP=18.2,BA=5.04,STAT.A=4.0,ExtBa=13.56
23/09/2019,02:10:31,TEMP=18.3,BA=5.24,STAT.A=4.0,ExtBa=13.57
23/09/2019,02:16:01,TEMP=18.5,BA=5.24,STAT.A=4.0,ExtBa=13.57
23/09/2019,02:22:46,TEMP=18.6,BA=5.24,STAT.A=4.0,ExtBa=13.57
23/09/2019,02:31:18,TEMP=18.7,BA=5.28,STAT.B=4.0,ExtBa=13.56
23/09/2019,02:35:22,TEMP=18.9,BA=5.28,STAT.A=4.0,ExtBa=13.56
23/09/2019,02:39:56,TEMP=18.9,BA=5.28,STAT.A=4.0,ExtBa=13.56
23/09/2019,02:45:04,TEMP=19.0,BA=5.16,STAT.A=4.0,ExtBa=13.56
23/09/2019,02:50:54,TEMP=19.2,BA=5.36,STAT.A=4.0,ExtBa=13.56
23/09/2019,02:57:36,TEMP=19.4,BA=5.36,STAT.C=4.0,ExtBa=13.56
23/09/2019,03:05:21,TEMP=19.5,BA=5.40,STAT.A=4.0,ExtBa=13.56
23/09/2019,03:14:29,TEMP=19.6,BA=5.44,STAT.A=4.0,ExtBa=13.57
23/09/2019,03:25:23,TEMP=19.8,BA=5.44,STAT.A=4.0,ExtBa=13.58
23/09/2019,03:38:44,TEMP=20.3,BA=5.44,STAT.A=4.0,ExtBa=13.65
23/09/2019,03:55:30,TEMP=21.1,BA=5.48,STAT.B=4.0,ExtBa=13.80
23/09/2019,04:04:14,TEMP=22.0,BA=5.24,STAT.D=4.0,ExtBa=13.60
23/09/2019,04:17:41,TEMP=22.6,BA=5.44,STAT.F,ExtBa=13.85
23/09/2019,04:32:39,TEMP=23.7,BA=5.28,STAT.D=4.0,ExtBa=13.67
23/09/2019,04:47:39,TEMP=24.3,BA=5.36,STAT.D=4.5,ExtBa=13.96
23/09/2019,05:02:39,TEMP=24.9,BA=5.48,STAT.D=4.5,ExtBa=14.03
23/09/2019,05:17:41,TEMP=25.6,BA=5.44,STAT.F,ExtBa=14.05
23/09/2019,05:32:40,TEMP=26.6,BA=5.28,STAT.D=4.5,ExtBa=13.76
23/09/2019,05:47:40,TEMP=27.3,BA=5.44,STAT.D=4.5,ExtBa=14.09
23/09/2019,06:02:40,TEMP=28.0,BA=5.44,STAT.D=4.5,ExtBa=14.09
23/09/2019,06:17:41,TEMP=28.3,BA=5.44,STAT.F,ExtBa=14.09
23/09/2019,06:32:40,TEMP=29.0,BA=5.32,STAT.D=4.5,ExtBa=13.75
23/09/2019,06:47:40,TEMP=29.2,BA=5.44,STAT.D=4.5,ExtBa=14.13
23/09/2019,07:02:40,TEMP=29.7,BA=5.44,STAT.D=5.0,ExtBa=14.09
23/09/2019,07:17:42,TEMP=29.9,BA=5.44,STAT.F,ExtBa=14.09
23/09/2019,07:32:40,TEMP=30.1,BA=5.40,STAT.D=5.0,ExtBa=14.10
23/09/2019,07:47:40,TEMP=30.5,BA=5.44,STAT.D=5.0,ExtBa=14.04
23/09/2019,08:02:40,TEMP=30.9,BA=5.44,STAT.D=5.0,ExtBa=14.02
23/09/2019,08:17:42,TEMP=30.9,BA=5.44,STAT.F,ExtBa=14.02
23/09/2019,08:32:40,TEMP=31.4,BA=5.32,STAT.D=5.0,ExtBa=13.74
23/09/2019,08:47:40,TEMP=31.9,BA=5.40,STAT.D=5.0,ExtBa=13.99
23/09/2019,09:02:40,TEMP=32.4,BA=5.40,STAT.D=5.0,ExtBa=13.95
23/09/2019,09:17:41,TEMP=32.7,BA=5.40,STAT.F,ExtBa=13.92
23/09/2019,09:32:40,TEMP=32.6,BA=5.32,STAT.D=5.0,ExtBa=13.67
23/09/2019,09:47:39,TEMP=32.3,BA=5.40,STAT.D=5.0,ExtBa=13.86
23/09/2019,10:02:39,TEMP=32.3,BA=5.40,STAT.D=5.0,ExtBa=13.81
23/09/2019,10:17:41,TEMP=32.2,BA=5.40,STAT.F,ExtBa=13.76
23/09/2019,10:32:39,TEMP=32.3,BA=5.32,STAT.D=5.0,ExtBa=13.60
23/09/2019,10:39:52,TEMP=31.9,BA=5.32,STAT.B=5.0,ExtBa=13.65
23/09/2019,10:56:38,TEMP=31.4,BA=5.40,STAT.A=5.0,ExtBa=13.62
23/09/2019,11:09:57,TEMP=31.0,BA=5.40,STAT.A=5.0,ExtBa=13.58
23/09/2019,11:20:51,TEMP=30.6,BA=5.40,STAT.A=5.0,ExtBa=13.57
23/09/2019,11:29:59,TEMP=30.3,BA=5.40,STAT.A=5.0,ExtBa=13.56
23/09/2019,11:37:44,TEMP=30.1,BA=5.32,STAT.C=5.0,ExtBa=13.56
23/09/2019,11:51:37,TEMP=29.7,BA=5.32,STAT.A=4.5,ExtBa=13.55
23/09/2019,11:53:30,TEMP=29.8,BA=5.32,STAT.A=4.5,ExtBa=13.55
23/09/2019,11:55:38,TEMP=29.8,BA=5.32,STAT.A=4.5,ExtBa=13.55
23/09/2019,11:59:58,TEMP=29.3,BA=5.32,STAT.A=4.5,ExtBa=13.56
23/09/2019,12:04:02,TEMP=29.1,BA=5.32,STAT.B=4.5,ExtBa=13.56
23/09/2019,12:12:34,TEMP=28.5,BA=5.36,STAT.A=4.5,ExtBa=13.56
23/09/2019,12:19:19,TEMP=28.2,BA=5.36,STAT.A=4.5,ExtBa=13.56
23/09/2019,12:24:49,TEMP=28.0,BA=5.28,STAT.A=4.5,ExtBa=13.56
23/09/2019,12:29:22,TEMP=27.8,BA=5.28,STAT.A=4.5,ExtBa=13.55
23/09/2019,12:33:12,TEMP=27.6,BA=5.28,STAT.A=4.5,ExtBa=13.56
23/09/2019,12:36:29,TEMP=27.5,BA=5.28,STAT.A=4.5,ExtBa=13.56